createdAt,value
2023-01-29T00:02:15.436Z,17.87
2023-01-29T00:05:27.988Z,16.87
2023-01-29T00:08:36.478Z,18.40
2023-01-29T00:11:45.913Z,19.63
2023-01-29T00:14:51.759Z,18.62
2023-01-29T00:17:58.264Z,20.45
2023-01-29T00:21:04.043Z,18.19
2023-01-29T00:24:11.363Z,17.84
2023-01-29T00:27:19.741Z,16.75
2023-01-29T00:30:28.947Z,16.36
2023-01-29T00:33:34.761Z,16.15
2023-01-29T00:36:41.540Z,16.72
2023-01-29T00:39:48.428Z,16.54
2023-01-29T00:43:10.108Z,16.58
2023-01-29T00:46:17.560Z,16.30
2023-01-29T00:49:24.669Z,16.69
2023-01-29T00:52:31.193Z,17.00
2023-01-29T00:55:37.867Z,16.15
2023-01-29T00:58:46.249Z,16.40
2023-01-29T01:02:05.303Z,16.18
2023-01-29T01:05:18.139Z,16.03
2023-01-29T01:08:37.289Z,16.44
2023-01-29T01:11:43.035Z,16.29
2023-01-29T01:14:52.654Z,16.06
2023-01-29T01:18:01.465Z,15.42
2023-01-29T01:21:09.238Z,15.83
2023-01-29T01:24:15.632Z,14.98
2023-01-29T01:27:22.877Z,15.29
2023-01-29T01:30:33.201Z,15.39
2023-01-29T01:33:40.693Z,14.91
2023-01-29T01:36:46.490Z,13.64
2023-01-29T01:39:57.964Z,13.60
2023-01-29T01:43:05.443Z,11.83
2023-01-29T01:46:15.226Z,10.58
2023-01-29T01:49:24.506Z,10.73
2023-01-29T01:52:35.259Z,12.44
2023-01-29T01:55:51.749Z,12.24
2023-01-29T01:59:02.368Z,11.58
2023-01-29T02:02:23.829Z,10.44
2023-01-29T02:05:46.095Z,12.25
2023-01-29T02:09:13.921Z,12.91
2023-01-29T02:12:22.865Z,11.92
2023-01-29T02:15:28.875Z,11.45
2023-01-29T02:18:39.673Z,12.35
2023-01-29T02:22:25.932Z,12.32
2023-01-29T02:26:13.456Z,12.13
2023-01-29T02:29:35.911Z,12.38
2023-01-29T02:32:58.872Z,12.06
2023-01-29T02:36:26.035Z,13.53
2023-01-29T02:39:42.444Z,18.12
2023-01-29T02:43:06.542Z,16.64
2023-01-29T02:46:31.831Z,19.32
2023-01-29T02:49:50.372Z,13.27
2023-01-29T02:53:09.597Z,13.06
2023-01-29T02:56:29.687Z,13.16
2023-01-29T02:59:48.027Z,10.17
2023-01-29T03:03:06.857Z,11.10
2023-01-29T03:06:24.399Z,11.28
2023-01-29T03:09:42.584Z,11.25
2023-01-29T03:12:59.954Z,9.78
2023-01-29T03:16:19.230Z,10.07
2023-01-29T03:19:40.010Z,11.93
2023-01-29T03:23:07.949Z,12.56
2023-01-29T03:26:33.728Z,10.61
2023-01-29T03:29:58.847Z,10.20
2023-01-29T03:33:23.766Z,10.24
2023-01-29T03:36:45.840Z,10.26
2023-01-29T03:39:55.752Z,10.71
2023-01-29T03:43:14.882Z,11.73
2023-01-29T03:46:34.332Z,10.83
2023-01-29T03:50:00.997Z,10.74
2023-01-29T03:53:24.074Z,10.62
2023-01-29T03:56:52.736Z,9.57
2023-01-29T04:00:17.495Z,9.72
2023-01-29T04:03:43.083Z,9.91
2023-01-29T04:06:56.916Z,10.15
2023-01-29T04:10:15.229Z,10.83
2023-01-29T04:13:22.828Z,8.53
2023-01-29T04:16:39.227Z,8.57
2023-01-29T04:19:54.855Z,7.54
2023-01-29T04:23:01.491Z,8.31
2023-01-29T04:26:42.139Z,8.92
2023-01-29T04:30:13.953Z,8.65
2023-01-29T04:33:40.209Z,9.18
2023-01-29T04:37:05.478Z,8.70
2023-01-29T04:40:27.219Z,8.19
2023-01-29T04:43:48.940Z,8.50
2023-01-29T04:47:15.829Z,8.70
2023-01-29T04:50:37.182Z,9.97
2023-01-29T04:54:03.096Z,10.24
2023-01-29T04:57:25.702Z,9.80
2023-01-29T05:00:45.299Z,11.03
2023-01-29T05:03:58.189Z,10.83
2023-01-29T05:07:09.969Z,10.94
2023-01-29T05:10:29.280Z,11.08
2023-01-29T05:13:45.103Z,11.59
2023-01-29T05:17:01.405Z,11.76
2023-01-29T05:20:09.071Z,14.97
2023-01-29T05:23:21.286Z,13.05
2023-01-29T05:26:39.857Z,10.81
2023-01-29T05:29:50.299Z,10.10
2023-01-29T05:32:58.658Z,10.61
2023-01-29T05:36:06.943Z,11.21
2023-01-29T05:39:12.852Z,11.52
2023-01-29T05:42:22.725Z,11.65
2023-01-29T05:45:29.050Z,12.08
2023-01-29T05:48:38.360Z,13.30
2023-01-29T05:51:44.306Z,16.48
2023-01-29T05:54:50.870Z,11.69
2023-01-29T05:57:56.635Z,12.42
2023-01-29T06:01:13.338Z,11.65
2023-01-29T06:04:22.205Z,12.19
2023-01-29T06:07:29.802Z,11.78
2023-01-29T06:10:36.276Z,12.87
2023-01-29T06:13:43.627Z,11.22
2023-01-29T06:16:49.559Z,11.30
2023-01-29T06:19:58.965Z,11.27
2023-01-29T06:23:05.151Z,11.80
2023-01-29T06:26:17.302Z,12.41
2023-01-29T06:29:23.086Z,15.83
2023-01-29T06:32:30.632Z,12.46
2023-01-29T06:35:39.145Z,13.92
2023-01-29T06:38:45.771Z,14.70
2023-01-29T06:41:51.767Z,16.08
2023-01-29T06:44:58.419Z,15.54
2023-01-29T06:48:04.124Z,14.86
2023-01-29T06:51:14.857Z,14.86
2023-01-29T06:54:20.650Z,24.41
2023-01-29T06:57:27.638Z,28.38
2023-01-29T07:00:33.645Z,32.96
2023-01-29T07:03:41.811Z,36.42
2023-01-29T07:06:50.250Z,37.02
2023-01-29T07:09:56.747Z,22.64
2023-01-29T07:13:03.175Z,27.72
2023-01-29T07:16:10.540Z,17.13
2023-01-29T07:19:16.549Z,18.46
2023-01-29T07:22:25.844Z,23.94
2023-01-29T07:25:31.713Z,21.64
2023-01-29T07:28:40.849Z,24.53
2023-01-29T07:31:46.855Z,24.16
2023-01-29T07:34:53.519Z,23.88
2023-01-29T07:38:02.107Z,22.99
2023-01-29T07:41:09.315Z,23.63
2023-01-29T07:44:18.273Z,26.93
2023-01-29T07:47:24.880Z,25.64
2023-01-29T07:50:31.404Z,23.51
2023-01-29T07:53:40.760Z,35.54
2023-01-29T07:56:46.610Z,29.17
2023-01-29T07:59:53.339Z,31.06
2023-01-29T08:03:07.026Z,29.35
2023-01-29T08:06:13.861Z,23.84
2023-01-29T08:09:22.339Z,18.93
2023-01-29T08:12:29.064Z,17.73
2023-01-29T08:15:39.215Z,14.76
2023-01-29T08:18:47.967Z,15.01
2023-01-29T08:21:53.709Z,14.18
2023-01-29T08:25:08.318Z,18.58
2023-01-29T08:28:14.944Z,13.99
2023-01-29T08:31:23.422Z,13.10
2023-01-29T08:34:29.272Z,12.58
2023-01-29T08:37:36.207Z,15.95
2023-01-29T08:40:47.415Z,14.85
2023-01-29T08:43:53.953Z,14.68
2023-01-29T08:46:59.785Z,16.67
2023-01-29T08:50:06.542Z,14.73
2023-01-29T08:53:13.146Z,14.34
2023-01-29T08:56:22.340Z,14.30
2023-01-29T08:59:28.283Z,16.62
2023-01-29T09:02:35.039Z,16.42
2023-01-29T09:05:43.310Z,16.20
2023-01-29T09:08:51.332Z,16.25
2023-01-29T09:11:59.923Z,19.50
2023-01-29T09:15:10.661Z,32.10
2023-01-29T09:18:25.058Z,23.32
2023-01-29T09:21:34.801Z,22.34
2023-01-29T09:24:40.626Z,21.95
2023-01-29T09:27:49.751Z,20.68
2023-01-29T09:30:55.741Z,21.45
2023-01-29T09:34:02.351Z,19.19
2023-01-29T09:37:08.323Z,19.62
2023-01-29T09:40:29.420Z,18.40
2023-01-29T09:43:52.203Z,20.44
2023-01-29T09:47:05.281Z,20.80
2023-01-29T09:50:21.359Z,26.33
2023-01-29T09:53:42.494Z,20.21
2023-01-29T09:56:51.374Z,29.41
2023-01-29T10:00:03.042Z,21.63
2023-01-29T10:03:38.990Z,19.60
2023-01-29T10:07:10.529Z,14.11
2023-01-29T10:10:46.494Z,17.50
2023-01-29T10:14:14.702Z,14.89
2023-01-29T10:17:53.319Z,13.59
2023-01-29T10:21:27.790Z,15.32
2023-01-29T10:24:44.724Z,16.54
2023-01-29T10:27:58.172Z,15.96
2023-01-29T10:31:18.812Z,20.75
2023-01-29T10:34:46.092Z,17.06
2023-01-29T10:37:56.885Z,17.22
2023-01-29T10:41:52.536Z,18.54
2023-01-29T10:45:29.141Z,17.63
2023-01-29T10:48:58.297Z,18.76
2023-01-29T10:52:29.269Z,26.85
2023-01-29T10:55:54.141Z,27.26
2023-01-29T10:59:08.105Z,23.90
2023-01-29T11:02:21.480Z,25.19
2023-01-29T11:05:37.550Z,25.69
2023-01-29T11:08:59.049Z,30.54
2023-01-29T11:12:13.633Z,28.49
2023-01-29T11:15:29.132Z,27.96
2023-01-29T11:18:57.733Z,30.61
2023-01-29T11:22:05.089Z,30.42
2023-01-29T11:25:21.764Z,29.27
2023-01-29T11:28:44.275Z,28.99
2023-01-29T11:31:51.256Z,26.69
2023-01-29T11:35:04.465Z,25.01
2023-01-29T11:38:22.527Z,23.77
2023-01-29T11:41:31.744Z,20.49
2023-01-29T11:44:44.991Z,19.30
2023-01-29T11:47:55.745Z,19.00
2023-01-29T11:51:06.481Z,18.03
2023-01-29T11:54:22.724Z,19.38
2023-01-29T11:57:38.887Z,18.44
2023-01-29T12:00:55.504Z,46.94
2023-01-29T12:04:02.877Z,109.75
2023-01-29T12:07:18.948Z,58.64
2023-01-29T12:10:37.320Z,49.63
2023-01-29T12:13:47.267Z,17.90
2023-01-29T12:17:04.413Z,18.69
2023-01-29T12:20:21.403Z,23.73
2023-01-29T12:23:41.848Z,22.35
2023-01-29T12:26:58.186Z,24.72
2023-01-29T12:30:22.577Z,20.73
2023-01-29T12:33:42.411Z,21.67
2023-01-29T12:36:59.639Z,20.71
2023-01-29T12:40:13.891Z,43.24
2023-01-29T12:43:25.453Z,22.01
2023-01-29T12:46:46.655Z,18.81
2023-01-29T12:50:04.829Z,20.08
2023-01-29T12:53:29.785Z,17.83
2023-01-29T12:56:42.493Z,16.69
2023-01-29T12:59:58.244Z,19.09
2023-01-29T13:03:24.081Z,16.76
2023-01-29T13:06:42.594Z,16.69
2023-01-29T13:10:00.439Z,18.98
2023-01-29T13:13:19.463Z,17.20
2023-01-29T13:16:34.626Z,18.76
2023-01-29T13:19:53.317Z,15.68
2023-01-29T13:23:13.307Z,26.97
2023-01-29T13:26:22.897Z,21.24
2023-01-29T13:29:33.292Z,14.96
2023-01-29T13:32:40.403Z,17.59
2023-01-29T13:35:50.135Z,15.39
2023-01-29T13:39:09.191Z,17.30
2023-01-29T13:42:24.146Z,18.09
2023-01-29T13:45:45.188Z,21.05
2023-01-29T13:48:58.362Z,17.43
2023-01-29T13:52:30.974Z,18.70
2023-01-29T13:55:40.690Z,18.05
2023-01-29T13:58:59.167Z,19.70
2023-01-29T14:02:22.135Z,17.01
2023-01-29T14:05:45.189Z,17.20
2023-01-29T14:08:53.635Z,23.97
2023-01-29T14:12:00.330Z,20.88
2023-01-29T14:15:30.862Z,21.65
2023-01-29T14:18:48.067Z,20.67
2023-01-29T14:21:54.437Z,20.99
2023-01-29T14:25:08.954Z,21.34
2023-01-29T14:28:33.889Z,24.75
2023-01-29T14:31:46.871Z,25.17
2023-01-29T14:35:02.773Z,21.97
2023-01-29T14:38:17.151Z,20.87
2023-01-29T14:41:34.392Z,21.55
2023-01-29T14:45:13.102Z,27.82
2023-01-29T14:48:41.754Z,22.48
2023-01-29T14:51:50.076Z,19.29
2023-01-29T14:55:04.548Z,20.80
2023-01-29T14:58:22.155Z,20.03
2023-01-29T15:01:37.221Z,20.74
2023-01-29T15:04:52.993Z,22.34
2023-01-29T15:08:09.468Z,28.00
2023-01-29T15:11:36.590Z,26.96
2023-01-29T15:14:58.748Z,24.49
2023-01-29T15:18:17.737Z,24.47
2023-01-29T15:21:23.941Z,25.21
2023-01-29T15:24:31.074Z,26.75
2023-01-29T15:27:38.321Z,27.38
2023-01-29T15:30:49.274Z,25.98
2023-01-29T15:34:00.443Z,24.60
2023-01-29T15:37:06.974Z,24.84
2023-01-29T15:40:22.092Z,27.60
2023-01-29T15:43:32.277Z,30.47
2023-01-29T15:46:45.594Z,32.42
2023-01-29T15:49:52.797Z,34.56
2023-01-29T15:53:15.239Z,35.32
2023-01-29T15:56:29.031Z,33.82
2023-01-29T15:59:51.858Z,33.89
2023-01-29T16:03:03.151Z,30.90
2023-01-29T16:06:12.285Z,29.05
2023-01-29T16:09:26.339Z,30.34
2023-01-29T16:12:32.371Z,29.86
2023-01-29T16:15:57.230Z,31.77
2023-01-29T16:19:17.329Z,30.85
2023-01-29T16:22:25.483Z,34.33
2023-01-29T16:25:34.180Z,30.67
2023-01-29T16:28:44.782Z,28.67
2023-01-29T16:32:00.666Z,27.05
2023-01-29T16:35:18.594Z,30.52
2023-01-29T16:38:35.311Z,36.31
2023-01-29T16:41:43.570Z,38.38
2023-01-29T16:44:54.467Z,38.73
2023-01-29T16:48:22.033Z,38.87
2023-01-29T16:51:34.668Z,43.50
2023-01-29T16:54:46.271Z,41.36
2023-01-29T16:57:57.755Z,38.22
2023-01-29T17:01:11.342Z,44.91
2023-01-29T17:04:21.770Z,49.65
2023-01-29T17:07:32.627Z,37.79
2023-01-29T17:10:38.911Z,37.75
2023-01-29T17:13:49.028Z,34.95
2023-01-29T17:16:59.601Z,35.68
2023-01-29T17:20:18.556Z,35.24
2023-01-29T17:23:26.951Z,32.75
2023-01-29T17:26:35.209Z,32.70
2023-01-29T17:29:41.781Z,32.30
2023-01-29T17:32:48.566Z,32.37
2023-01-29T17:35:57.080Z,30.00
2023-01-29T17:39:17.967Z,31.49
2023-01-29T17:42:23.637Z,31.89
2023-01-29T17:45:30.586Z,34.51
2023-01-29T17:48:36.394Z,35.05
2023-01-29T17:51:44.966Z,37.81
2023-01-29T17:54:53.328Z,38.10
2023-01-29T17:58:00.256Z,38.62
2023-01-29T18:01:06.123Z,38.03
2023-01-29T18:04:12.973Z,37.69
2023-01-29T18:07:18.930Z,36.99
2023-01-29T18:10:28.614Z,37.35
2023-01-29T18:13:36.308Z,39.14
2023-01-29T18:16:43.172Z,39.07
2023-01-29T18:19:51.207Z,38.15
2023-01-29T18:22:58.030Z,36.66
2023-01-29T18:26:07.945Z,35.82
2023-01-29T18:29:14.733Z,36.15
2023-01-29T18:32:20.534Z,37.05
2023-01-29T18:35:30.574Z,35.68
2023-01-29T18:38:36.600Z,37.48
2023-01-29T18:41:45.909Z,38.43
2023-01-29T18:44:52.030Z,40.36
2023-01-29T18:47:58.930Z,40.44
2023-01-29T18:51:05.057Z,39.06
2023-01-29T18:54:15.667Z,38.49
2023-01-29T18:58:29.356Z,40.40
2023-01-29T19:00:51.061Z,41.34
2023-01-29T19:03:59.365Z,41.73
2023-01-29T19:07:07.709Z,40.61
2023-01-29T19:10:17.274Z,41.21
2023-01-29T19:13:27.074Z,41.52
2023-01-29T19:16:33.086Z,45.14
2023-01-29T19:19:39.667Z,54.12
2023-01-29T19:22:45.631Z,51.45
2023-01-29T19:25:52.451Z,50.85
2023-01-29T19:29:01.178Z,49.13
2023-01-29T19:32:09.070Z,46.75
2023-01-29T19:35:15.134Z,43.17
2023-01-29T19:38:21.933Z,40.47
2023-01-29T19:41:28.007Z,39.61
2023-01-29T19:44:39.096Z,39.60
2023-01-29T19:47:46.778Z,39.99
2023-01-29T19:50:58.249Z,41.53
2023-01-29T19:54:04.336Z,41.96
2023-01-29T19:57:11.335Z,45.94
2023-01-29T20:00:24.035Z,46.41
2023-01-29T20:03:32.164Z,43.02
2023-01-29T20:06:38.242Z,43.58
2023-01-29T20:09:45.008Z,43.23
2023-01-29T20:12:51.004Z,42.97
2023-01-29T20:16:03.131Z,43.38
2023-01-29T20:19:14.269Z,44.81
2023-01-29T20:22:21.648Z,46.26
2023-01-29T20:25:27.616Z,45.40
2023-01-29T20:28:38.139Z,46.13
2023-01-29T20:31:53.899Z,46.06
2023-01-29T20:35:00.614Z,46.36
2023-01-29T20:38:08.372Z,49.15
2023-01-29T20:41:19.427Z,46.25
2023-01-29T20:44:25.389Z,42.75
2023-01-29T20:47:36.645Z,41.25
2023-01-29T20:50:44.266Z,40.81
2023-01-29T20:53:51.932Z,42.07
2023-01-29T20:56:58.119Z,42.83
2023-01-29T21:00:05.346Z,42.58
2023-01-29T21:03:14.160Z,47.37
2023-01-29T21:06:22.740Z,43.88
2023-01-29T21:09:28.615Z,43.15
2023-01-29T21:12:38.198Z,43.04
2023-01-29T21:15:46.995Z,43.04
2023-01-29T21:18:59.699Z,42.28
2023-01-29T21:22:07.118Z,43.34
2023-01-29T21:25:15.032Z,41.64
2023-01-29T21:28:22.177Z,41.64
2023-01-29T21:31:28.868Z,41.73
2023-01-29T21:34:37.599Z,43.17
2023-01-29T21:37:45.167Z,41.92
2023-01-29T21:40:51.263Z,42.89
2023-01-29T21:43:58.161Z,41.97
2023-01-29T21:47:12.564Z,45.06
2023-01-29T21:50:23.541Z,44.85
2023-01-29T21:53:29.757Z,41.59
2023-01-29T21:56:36.587Z,38.21
2023-01-29T21:59:42.510Z,36.28
2023-01-29T22:02:51.415Z,35.63
2023-01-29T22:06:00.011Z,35.20
2023-01-29T22:09:09.644Z,34.49
2023-01-29T22:12:15.617Z,34.97
2023-01-29T22:15:23.876Z,37.84
2023-01-29T22:18:30.570Z,37.65
2023-01-29T22:21:40.065Z,35.23
2023-01-29T22:24:46.804Z,32.85
2023-01-29T22:27:53.509Z,32.41
2023-01-29T22:31:04.827Z,32.20
2023-01-29T22:34:12.897Z,31.56
2023-01-29T22:37:21.406Z,31.15
2023-01-29T22:40:28.127Z,31.13
2023-01-29T22:43:34.171Z,30.23
2023-01-29T22:46:40.873Z,30.31
2023-01-29T22:49:50.193Z,29.43
2023-01-29T22:52:59.551Z,29.80
2023-01-29T22:56:05.526Z,29.47
2023-01-29T22:59:13.902Z,29.43
2023-01-29T23:02:19.696Z,29.72
2023-01-29T23:05:26.454Z,30.76
2023-01-29T23:08:36.254Z,30.41
2023-01-29T23:11:42.809Z,30.58
2023-01-29T23:14:48.711Z,30.69
2023-01-29T23:17:55.322Z,30.38
2023-01-29T23:21:01.274Z,31.33
2023-01-29T23:24:13.209Z,30.43
2023-01-29T23:27:19.183Z,31.00
2023-01-29T23:30:25.802Z,31.38
2023-01-29T23:33:31.909Z,30.91
2023-01-29T23:36:38.485Z,30.83
2023-01-29T23:39:46.909Z,30.97
2023-01-29T23:42:56.173Z,30.55
2023-01-29T23:46:02.514Z,29.20
2023-01-29T23:49:09.314Z,28.37
2023-01-29T23:52:15.186Z,27.68
2023-01-29T23:55:24.581Z,27.23
2023-01-29T23:58:31.903Z,27.51
